sensor_id;sensor_type;location;lat;lon;timestamp;temperature;humidity
9987;DHT22;5033;46.310;11.214;2023-05-18T00:01:07;13.60;99.90
9987;DHT22;5033;46.310;11.214;2023-05-18T00:03:35;13.60;99.90
9987;DHT22;5033;46.310;11.214;2023-05-18T00:06:04;13.60;99.90
9987;DHT22;5033;46.310;11.214;2023-05-18T00:08:31;13.60;99.90
9987;DHT22;5033;46.310;11.214;2023-05-18T00:10:59;13.50;99.90
9987;DHT22;5033;46.310;11.214;2023-05-18T00:13:26;13.60;99.90
9987;DHT22;5033;46.310;11.214;2023-05-18T00:15:53;13.50;99.90
9987;DHT22;5033;46.310;11.214;2023-05-18T00:18:20;13.50;99.90
9987;DHT22;5033;46.310;11.214;2023-05-18T00:20:49;13.50;99.90
9987;DHT22;5033;46.310;11.214;2023-05-18T00:23:25;13.50;99.90
9987;DHT22;5033;46.310;11.214;2023-05-18T00:25:55;13.50;99.90
9987;DHT22;5033;46.310;11.214;2023-05-18T00:28:22;13.50;99.90
9987;DHT22;5033;46.310;11.214;2023-05-18T00:30:49;13.50;99.90
9987;DHT22;5033;46.310;11.214;2023-05-18T00:33:16;13.50;99.90
9987;DHT22;5033;46.310;11.214;2023-05-18T00:35:43;13.50;99.90
9987;DHT22;5033;46.310;11.214;2023-05-18T00:38:10;13.50;99.90
9987;DHT22;5033;46.310;11.214;2023-05-18T00:40:41;13.40;99.90
9987;DHT22;5033;46.310;11.214;2023-05-18T00:43:08;13.50;99.90
9987;DHT22;5033;46.310;11.214;2023-05-18T00:45:35;13.40;99.90
9987;DHT22;5033;46.310;11.214;2023-05-18T00:48:02;13.40;99.90
9987;DHT22;5033;46.310;11.214;2023-05-18T00:50:29;13.40;99.90
9987;DHT22;5033;46.310;11.214;2023-05-18T00:52:56;13.40;99.90
9987;DHT22;5033;46.310;11.214;2023-05-18T00:55:24;13.40;99.90
9987;DHT22;5033;46.310;11.214;2023-05-18T00:57:53;13.40;99.90
9987;DHT22;5033;46.310;11.214;2023-05-18T01:00:21;13.30;99.90
9987;DHT22;5033;46.310;11.214;2023-05-18T01:02:48;13.30;99.90
9987;DHT22;5033;46.310;11.214;2023-05-18T01:05:15;13.30;99.90
9987;DHT22;5033;46.310;11.214;2023-05-18T01:07:45;13.30;99.90
9987;DHT22;5033;46.310;11.214;2023-05-18T01:10:14;13.30;99.90
9987;DHT22;5033;46.310;11.214;2023-05-18T01:12:47;13.30;99.90
9987;DHT22;5033;46.310;11.214;2023-05-18T01:15:18;13.20;99.90
9987;DHT22;5033;46.310;11.214;2023-05-18T01:18:06;13.20;99.90
9987;DHT22;5033;46.310;11.214;2023-05-18T01:20:44;13.10;99.90
9987;DHT22;5033;46.310;11.214;2023-05-18T01:23:39;13.10;99.90
9987;DHT22;5033;46.310;11.214;2023-05-18T01:26:18;13.10;99.90
9987;DHT22;5033;46.310;11.214;2023-05-18T01:28:50;13.10;99.90
9987;DHT22;5033;46.310;11.214;2023-05-18T01:31:17;13.10;99.90
9987;DHT22;5033;46.310;11.214;2023-05-18T01:33:45;13.10;99.90
9987;DHT22;5033;46.310;11.214;2023-05-18T01:36:12;13.10;99.90
9987;DHT22;5033;46.310;11.214;2023-05-18T01:38:39;13.10;99.90
9987;DHT22;5033;46.310;11.214;2023-05-18T01:41:11;13.10;99.90
9987;DHT22;5033;46.310;11.214;2023-05-18T01:43:49;13.00;99.90
9987;DHT22;5033;46.310;11.214;2023-05-18T01:46:23;13.00;99.90
9987;DHT22;5033;46.310;11.214;2023-05-18T01:48:54;13.00;99.90
9987;DHT22;5033;46.310;11.214;2023-05-18T01:51:28;12.90;99.90
9987;DHT22;5033;46.310;11.214;2023-05-18T01:54:01;12.90;99.90
9987;DHT22;5033;46.310;11.214;2023-05-18T01:56:29;12.90;99.90
9987;DHT22;5033;46.310;11.214;2023-05-18T01:58:59;12.90;99.90
9987;DHT22;5033;46.310;11.214;2023-05-18T02:01:27;12.80;99.90
9987;DHT22;5033;46.310;11.214;2023-05-18T02:03:55;12.80;99.90
9987;DHT22;5033;46.310;11.214;2023-05-18T02:06:22;12.80;99.90
9987;DHT22;5033;46.310;11.214;2023-05-18T02:08:49;12.80;99.90
9987;DHT22;5033;46.310;11.214;2023-05-18T02:11:16;12.70;99.90
9987;DHT22;5033;46.310;11.214;2023-05-18T02:13:43;12.70;99.90
9987;DHT22;5033;46.310;11.214;2023-05-18T02:16:11;12.70;99.90
9987;DHT22;5033;46.310;11.214;2023-05-18T02:18:38;12.60;99.90
9987;DHT22;5033;46.310;11.214;2023-05-18T02:21:05;12.60;99.90
9987;DHT22;5033;46.310;11.214;2023-05-18T02:23:33;12.50;99.90
9987;DHT22;5033;46.310;11.214;2023-05-18T02:26:01;12.50;99.90
9987;DHT22;5033;46.310;11.214;2023-05-18T02:28:28;12.40;99.90
9987;DHT22;5033;46.310;11.214;2023-05-18T02:31:03;12.40;99.90
9987;DHT22;5033;46.310;11.214;2023-05-18T02:33:32;12.30;99.90
9987;DHT22;5033;46.310;11.214;2023-05-18T02:36:06;12.30;99.90
9987;DHT22;5033;46.310;11.214;2023-05-18T02:38:35;12.20;99.90
9987;DHT22;5033;46.310;11.214;2023-05-18T02:41:03;12.20;99.90
9987;DHT22;5033;46.310;11.214;2023-05-18T02:43:30;12.10;99.90
9987;DHT22;5033;46.310;11.214;2023-05-18T02:45:57;12.10;99.90
9987;DHT22;5033;46.310;11.214;2023-05-18T02:48:24;12.10;99.90
9987;DHT22;5033;46.310;11.214;2023-05-18T02:50:52;12.00;99.90
9987;DHT22;5033;46.310;11.214;2023-05-18T02:53:20;11.90;99.90
9987;DHT22;5033;46.310;11.214;2023-05-18T02:55:47;11.80;99.90
9987;DHT22;5033;46.310;11.214;2023-05-18T02:58:18;11.80;99.90
9987;DHT22;5033;46.310;11.214;2023-05-18T03:00:47;11.80;99.90
9987;DHT22;5033;46.310;11.214;2023-05-18T03:03:16;11.70;99.90
9987;DHT22;5033;46.310;11.214;2023-05-18T03:05:43;11.70;99.90
9987;DHT22;5033;46.310;11.214;2023-05-18T03:08:11;11.70;99.90
9987;DHT22;5033;46.310;11.214;2023-05-18T03:10:39;11.70;99.90
9987;DHT22;5033;46.310;11.214;2023-05-18T03:13:06;11.60;99.90
9987;DHT22;5033;46.310;11.214;2023-05-18T03:15:33;11.60;99.90
9987;DHT22;5033;46.310;11.214;2023-05-18T03:18:02;11.60;99.90
9987;DHT22;5033;46.310;11.214;2023-05-18T03:20:29;11.70;99.90
9987;DHT22;5033;46.310;11.214;2023-05-18T03:22:56;11.60;99.90
9987;DHT22;5033;46.310;11.214;2023-05-18T03:25:24;11.50;99.90
9987;DHT22;5033;46.310;11.214;2023-05-18T03:27:51;11.40;99.90
9987;DHT22;5033;46.310;11.214;2023-05-18T03:30:18;11.30;99.90
9987;DHT22;5033;46.310;11.214;2023-05-18T03:32:46;11.30;99.90
9987;DHT22;5033;46.310;11.214;2023-05-18T03:35:14;11.30;99.90
9987;DHT22;5033;46.310;11.214;2023-05-18T03:37:41;11.20;99.90
9987;DHT22;5033;46.310;11.214;2023-05-18T03:40:09;11.20;99.90
9987;DHT22;5033;46.310;11.214;2023-05-18T03:42:38;11.20;99.90
9987;DHT22;5033;46.310;11.214;2023-05-18T03:45:06;11.20;99.90
9987;DHT22;5033;46.310;11.214;2023-05-18T03:47:34;11.20;99.90
9987;DHT22;5033;46.310;11.214;2023-05-18T03:50:01;11.20;99.90
9987;DHT22;5033;46.310;11.214;2023-05-18T03:52:28;11.20;99.90
9987;DHT22;5033;46.310;11.214;2023-05-18T03:54:55;11.20;99.90
9987;DHT22;5033;46.310;11.214;2023-05-18T03:57:22;11.10;99.90
9987;DHT22;5033;46.310;11.214;2023-05-18T03:59:51;11.10;99.90
9987;DHT22;5033;46.310;11.214;2023-05-18T04:02:18;11.10;99.90
9987;DHT22;5033;46.310;11.214;2023-05-18T04:04:45;11.20;99.90
9987;DHT22;5033;46.310;11.214;2023-05-18T04:07:12;11.20;99.90
9987;DHT22;5033;46.310;11.214;2023-05-18T04:09:41;11.20;99.90
9987;DHT22;5033;46.310;11.214;2023-05-18T04:12:09;11.10;99.90
9987;DHT22;5033;46.310;11.214;2023-05-18T04:14:36;11.00;99.90
9987;DHT22;5033;46.310;11.214;2023-05-18T04:17:04;11.00;99.90
9987;DHT22;5033;46.310;11.214;2023-05-18T04:19:32;11.10;99.90
9987;DHT22;5033;46.310;11.214;2023-05-18T04:21:59;11.20;99.90
9987;DHT22;5033;46.310;11.214;2023-05-18T04:24:29;11.30;99.90
9987;DHT22;5033;46.310;11.214;2023-05-18T04:26:57;11.40;99.90
9987;DHT22;5033;46.310;11.214;2023-05-18T04:29:25;11.50;99.90
9987;DHT22;5033;46.310;11.214;2023-05-18T04:31:52;11.60;99.90
9987;DHT22;5033;46.310;11.214;2023-05-18T04:34:27;11.70;99.90
9987;DHT22;5033;46.310;11.214;2023-05-18T04:36:54;11.80;99.90
9987;DHT22;5033;46.310;11.214;2023-05-18T04:39:23;11.90;99.90
9987;DHT22;5033;46.310;11.214;2023-05-18T04:41:50;12.00;99.90
9987;DHT22;5033;46.310;11.214;2023-05-18T04:44:23;12.10;99.90
9987;DHT22;5033;46.310;11.214;2023-05-18T04:46:50;12.30;99.90
9987;DHT22;5033;46.310;11.214;2023-05-18T04:49:17;12.40;99.90
9987;DHT22;5033;46.310;11.214;2023-05-18T04:51:48;12.40;99.90
9987;DHT22;5033;46.310;11.214;2023-05-18T04:54:21;12.50;99.90
9987;DHT22;5033;46.310;11.214;2023-05-18T04:56:48;12.50;99.90
9987;DHT22;5033;46.310;11.214;2023-05-18T04:59:15;12.50;99.90
9987;DHT22;5033;46.310;11.214;2023-05-18T05:01:42;12.60;99.90
9987;DHT22;5033;46.310;11.214;2023-05-18T05:04:09;12.60;99.90
9987;DHT22;5033;46.310;11.214;2023-05-18T05:06:36;12.70;99.90
9987;DHT22;5033;46.310;11.214;2023-05-18T05:09:05;12.80;99.90
9987;DHT22;5033;46.310;11.214;2023-05-18T05:11:32;12.90;99.90
9987;DHT22;5033;46.310;11.214;2023-05-18T05:14:00;13.10;99.90
9987;DHT22;5033;46.310;11.214;2023-05-18T05:16:27;13.20;99.90
9987;DHT22;5033;46.310;11.214;2023-05-18T05:18:54;13.30;99.90
9987;DHT22;5033;46.310;11.214;2023-05-18T05:21:21;13.30;99.90
9987;DHT22;5033;46.310;11.214;2023-05-18T05:23:48;13.40;99.90
9987;DHT22;5033;46.310;11.214;2023-05-18T05:26:18;13.40;99.90
9987;DHT22;5033;46.310;11.214;2023-05-18T05:28:45;13.50;99.90
9987;DHT22;5033;46.310;11.214;2023-05-18T05:31:12;13.60;99.90
9987;DHT22;5033;46.310;11.214;2023-05-18T05:33:39;13.60;99.90
9987;DHT22;5033;46.310;11.214;2023-05-18T05:36:07;13.70;99.90
9987;DHT22;5033;46.310;11.214;2023-05-18T05:38:34;13.80;99.90
9987;DHT22;5033;46.310;11.214;2023-05-18T05:41:01;13.80;99.90
9987;DHT22;5033;46.310;11.214;2023-05-18T05:43:29;13.80;99.90
9987;DHT22;5033;46.310;11.214;2023-05-18T05:45:56;13.90;99.90
9987;DHT22;5033;46.310;11.214;2023-05-18T05:48:23;14.00;99.90
9987;DHT22;5033;46.310;11.214;2023-05-18T05:50:50;14.00;99.90
9987;DHT22;5033;46.310;11.214;2023-05-18T05:53:17;13.90;99.90
9987;DHT22;5033;46.310;11.214;2023-05-18T05:55:45;13.90;99.90
9987;DHT22;5033;46.310;11.214;2023-05-18T05:58:12;14.00;99.90
9987;DHT22;5033;46.310;11.214;2023-05-18T06:00:40;14.10;99.90
9987;DHT22;5033;46.310;11.214;2023-05-18T06:03:08;14.20;99.90
9987;DHT22;5033;46.310;11.214;2023-05-18T06:05:35;14.30;99.90
9987;DHT22;5033;46.310;11.214;2023-05-18T06:08:02;14.40;99.90
9987;DHT22;5033;46.310;11.214;2023-05-18T06:10:29;14.60;99.90
9987;DHT22;5033;46.310;11.214;2023-05-18T06:12:56;14.80;99.90
9987;DHT22;5033;46.310;11.214;2023-05-18T06:15:23;14.90;99.90
9987;DHT22;5033;46.310;11.214;2023-05-18T06:17:52;15.10;99.90
9987;DHT22;5033;46.310;11.214;2023-05-18T06:20:19;15.20;99.90
9987;DHT22;5033;46.310;11.214;2023-05-18T06:22:46;15.30;99.90
9987;DHT22;5033;46.310;11.214;2023-05-18T06:25:13;15.30;99.90
9987;DHT22;5033;46.310;11.214;2023-05-18T06:27:40;15.40;99.90
9987;DHT22;5033;46.310;11.214;2023-05-18T06:30:09;15.50;99.90
9987;DHT22;5033;46.310;11.214;2023-05-18T06:32:36;15.40;99.90
9987;DHT22;5033;46.310;11.214;2023-05-18T06:35:05;15.50;99.90
9987;DHT22;5033;46.310;11.214;2023-05-18T06:37:33;15.40;99.90
9987;DHT22;5033;46.310;11.214;2023-05-18T06:40:00;15.50;99.90
9987;DHT22;5033;46.310;11.214;2023-05-18T06:42:28;15.40;99.90
9987;DHT22;5033;46.310;11.214;2023-05-18T06:44:56;15.50;99.90
9987;DHT22;5033;46.310;11.214;2023-05-18T06:47:23;15.60;99.90
9987;DHT22;5033;46.310;11.214;2023-05-18T06:49:50;15.70;99.90
9987;DHT22;5033;46.310;11.214;2023-05-18T06:52:18;15.70;99.90
9987;DHT22;5033;46.310;11.214;2023-05-18T06:54:45;15.70;99.90
9987;DHT22;5033;46.310;11.214;2023-05-18T06:57:12;15.80;99.90
9987;DHT22;5033;46.310;11.214;2023-05-18T06:59:39;15.80;99.90
9987;DHT22;5033;46.310;11.214;2023-05-18T07:02:06;16.00;99.90
9987;DHT22;5033;46.310;11.214;2023-05-18T07:04:33;16.10;99.90
9987;DHT22;5033;46.310;11.214;2023-05-18T07:07:00;16.10;99.90
9987;DHT22;5033;46.310;11.214;2023-05-18T07:09:28;16.20;99.90
9987;DHT22;5033;46.310;11.214;2023-05-18T07:11:55;16.20;99.90
9987;DHT22;5033;46.310;11.214;2023-05-18T07:14:22;16.40;99.90
9987;DHT22;5033;46.310;11.214;2023-05-18T07:16:49;16.40;99.90
9987;DHT22;5033;46.310;11.214;2023-05-18T07:19:16;16.40;99.90
9987;DHT22;5033;46.310;11.214;2023-05-18T07:21:43;16.40;99.90
9987;DHT22;5033;46.310;11.214;2023-05-18T07:24:10;16.30;99.90
9987;DHT22;5033;46.310;11.214;2023-05-18T07:26:39;16.30;99.90
9987;DHT22;5033;46.310;11.214;2023-05-18T07:29:06;16.30;99.90
9987;DHT22;5033;46.310;11.214;2023-05-18T07:31:34;16.30;99.90
9987;DHT22;5033;46.310;11.214;2023-05-18T07:34:03;16.40;99.90
9987;DHT22;5033;46.310;11.214;2023-05-18T07:36:30;16.60;99.90
9987;DHT22;5033;46.310;11.214;2023-05-18T07:38:57;16.80;99.90
9987;DHT22;5033;46.310;11.214;2023-05-18T07:41:25;16.80;99.90
9987;DHT22;5033;46.310;11.214;2023-05-18T07:43:56;17.00;99.90
9987;DHT22;5033;46.310;11.214;2023-05-18T07:46:23;17.10;99.90
9987;DHT22;5033;46.310;11.214;2023-05-18T07:48:50;17.40;99.90
9987;DHT22;5033;46.310;11.214;2023-05-18T07:51:16;17.40;99.90
9987;DHT22;5033;46.310;11.214;2023-05-18T07:53:44;17.60;99.90
9987;DHT22;5033;46.310;11.214;2023-05-18T07:56:11;17.70;99.90
9987;DHT22;5033;46.310;11.214;2023-05-18T07:58:39;17.60;99.90
9987;DHT22;5033;46.310;11.214;2023-05-18T08:01:08;17.50;99.90
9987;DHT22;5033;46.310;11.214;2023-05-18T08:03:35;17.60;99.90
9987;DHT22;5033;46.310;11.214;2023-05-18T08:06:02;17.50;99.90
9987;DHT22;5033;46.310;11.214;2023-05-18T08:08:29;17.50;99.90
9987;DHT22;5033;46.310;11.214;2023-05-18T08:10:56;17.40;99.90
9987;DHT22;5033;46.310;11.214;2023-05-18T08:13:23;17.60;99.90
9987;DHT22;5033;46.310;11.214;2023-05-18T08:15:50;18.00;99.90
9987;DHT22;5033;46.310;11.214;2023-05-18T08:18:18;18.30;99.90
9987;DHT22;5033;46.310;11.214;2023-05-18T08:20:47;18.50;99.90
9987;DHT22;5033;46.310;11.214;2023-05-18T08:23:14;18.60;99.90
9987;DHT22;5033;46.310;11.214;2023-05-18T08:25:41;18.60;99.90
9987;DHT22;5033;46.310;11.214;2023-05-18T08:28:08;18.60;99.90
9987;DHT22;5033;46.310;11.214;2023-05-18T08:30:35;18.70;99.90
9987;DHT22;5033;46.310;11.214;2023-05-18T08:33:02;18.80;99.90
9987;DHT22;5033;46.310;11.214;2023-05-18T08:35:30;18.80;99.90
9987;DHT22;5033;46.310;11.214;2023-05-18T08:37:58;19.00;99.90
9987;DHT22;5033;46.310;11.214;2023-05-18T08:40:32;19.00;99.90
9987;DHT22;5033;46.310;11.214;2023-05-18T08:43:02;19.40;99.90
9987;DHT22;5033;46.310;11.214;2023-05-18T08:45:38;19.60;99.90
9987;DHT22;5033;46.310;11.214;2023-05-18T08:48:06;19.60;99.90
9987;DHT22;5033;46.310;11.214;2023-05-18T08:50:40;19.40;99.90
9987;DHT22;5033;46.310;11.214;2023-05-18T08:53:09;19.70;99.90
9987;DHT22;5033;46.310;11.214;2023-05-18T08:55:37;19.80;99.90
9987;DHT22;5033;46.310;11.214;2023-05-18T08:58:08;19.90;99.90
9987;DHT22;5033;46.310;11.214;2023-05-18T09:00:37;19.80;99.90
9987;DHT22;5033;46.310;11.214;2023-05-18T09:03:04;19.70;99.90
9987;DHT22;5033;46.310;11.214;2023-05-18T09:05:31;19.60;99.90
9987;DHT22;5033;46.310;11.214;2023-05-18T09:08:00;19.80;99.90
9987;DHT22;5033;46.310;11.214;2023-05-18T09:10:28;19.90;99.90
9987;DHT22;5033;46.310;11.214;2023-05-18T09:12:59;19.90;99.90
9987;DHT22;5033;46.310;11.214;2023-05-18T09:15:27;19.80;99.90
9987;DHT22;5033;46.310;11.214;2023-05-18T09:17:54;19.80;99.90
9987;DHT22;5033;46.310;11.214;2023-05-18T09:20:21;19.70;99.90
9987;DHT22;5033;46.310;11.214;2023-05-18T09:22:49;19.90;99.90
9987;DHT22;5033;46.310;11.214;2023-05-18T09:25:19;19.90;99.90
9987;DHT22;5033;46.310;11.214;2023-05-18T09:27:47;20.00;99.90
9987;DHT22;5033;46.310;11.214;2023-05-18T09:30:16;20.20;99.90
9987;DHT22;5033;46.310;11.214;2023-05-18T09:32:45;20.40;99.90
9987;DHT22;5033;46.310;11.214;2023-05-18T09:35:12;20.50;99.90
9987;DHT22;5033;46.310;11.214;2023-05-18T09:37:40;20.50;99.90
9987;DHT22;5033;46.310;11.214;2023-05-18T09:40:09;20.50;99.90
9987;DHT22;5033;46.310;11.214;2023-05-18T09:42:38;20.60;99.90
9987;DHT22;5033;46.310;11.214;2023-05-18T09:45:15;20.80;99.90
9987;DHT22;5033;46.310;11.214;2023-05-18T09:47:43;20.90;99.90
9987;DHT22;5033;46.310;11.214;2023-05-18T09:50:10;21.00;99.90
9987;DHT22;5033;46.310;11.214;2023-05-18T09:52:41;21.00;99.90
9987;DHT22;5033;46.310;11.214;2023-05-18T09:55:09;21.10;99.90
9987;DHT22;5033;46.310;11.214;2023-05-18T09:57:42;21.20;99.90
9987;DHT22;5033;46.310;11.214;2023-05-18T10:00:11;21.30;99.90
9987;DHT22;5033;46.310;11.214;2023-05-18T10:02:39;21.60;99.90
9987;DHT22;5033;46.310;11.214;2023-05-18T10:05:17;21.80;99.90
9987;DHT22;5033;46.310;11.214;2023-05-18T10:07:45;21.80;99.90
9987;DHT22;5033;46.310;11.214;2023-05-18T10:10:16;21.90;99.90
9987;DHT22;5033;46.310;11.214;2023-05-18T10:12:45;22.00;99.90
9987;DHT22;5033;46.310;11.214;2023-05-18T10:15:14;22.10;99.90
9987;DHT22;5033;46.310;11.214;2023-05-18T10:17:42;22.00;99.90
9987;DHT22;5033;46.310;11.214;2023-05-18T10:20:10;21.90;99.90
9987;DHT22;5033;46.310;11.214;2023-05-18T10:22:37;21.70;99.90
9987;DHT22;5033;46.310;11.214;2023-05-18T10:25:08;21.80;99.90
9987;DHT22;5033;46.310;11.214;2023-05-18T10:27:37;21.90;99.90
9987;DHT22;5033;46.310;11.214;2023-05-18T10:30:08;22.10;99.90
9987;DHT22;5033;46.310;11.214;2023-05-18T10:32:35;22.00;99.90
9987;DHT22;5033;46.310;11.214;2023-05-18T10:35:05;22.10;99.90
9987;DHT22;5033;46.310;11.214;2023-05-18T10:37:34;22.20;99.90
9987;DHT22;5033;46.310;11.214;2023-05-18T10:40:05;22.30;99.90
9987;DHT22;5033;46.310;11.214;2023-05-18T10:42:34;22.30;99.90
9987;DHT22;5033;46.310;11.214;2023-05-18T10:45:01;22.40;99.90
9987;DHT22;5033;46.310;11.214;2023-05-18T10:47:32;22.60;99.90
9987;DHT22;5033;46.310;11.214;2023-05-18T10:50:05;22.70;99.90
9987;DHT22;5033;46.310;11.214;2023-05-18T10:52:32;22.50;99.90
9987;DHT22;5033;46.310;11.214;2023-05-18T10:54:59;22.60;99.90
9987;DHT22;5033;46.310;11.214;2023-05-18T10:57:31;22.70;99.90
9987;DHT22;5033;46.310;11.214;2023-05-18T11:00:00;22.60;99.90
9987;DHT22;5033;46.310;11.214;2023-05-18T11:02:27;22.60;99.90
9987;DHT22;5033;46.310;11.214;2023-05-18T11:04:57;22.40;99.90
9987;DHT22;5033;46.310;11.214;2023-05-18T11:07:24;22.10;99.90
9987;DHT22;5033;46.310;11.214;2023-05-18T11:09:53;22.10;99.90
9987;DHT22;5033;46.310;11.214;2023-05-18T11:12:21;22.60;99.90
9987;DHT22;5033;46.310;11.214;2023-05-18T11:14:50;23.30;99.90
9987;DHT22;5033;46.310;11.214;2023-05-18T11:17:19;23.70;99.90
9987;DHT22;5033;46.310;11.214;2023-05-18T11:20:13;24.00;99.90
9987;DHT22;5033;46.310;11.214;2023-05-18T11:22:47;23.90;99.90
9987;DHT22;5033;46.310;11.214;2023-05-18T11:25:37;23.70;99.90
9987;DHT22;5033;46.310;11.214;2023-05-18T11:28:05;23.80;99.90
9987;DHT22;5033;46.310;11.214;2023-05-18T11:30:46;23.90;99.90
9987;DHT22;5033;46.310;11.214;2023-05-18T11:33:15;23.90;99.90
9987;DHT22;5033;46.310;11.214;2023-05-18T11:36:00;23.90;99.90
9987;DHT22;5033;46.310;11.214;2023-05-18T11:38:49;23.70;99.90
9987;DHT22;5033;46.310;11.214;2023-05-18T11:41:26;23.60;99.90
9987;DHT22;5033;46.310;11.214;2023-05-18T11:44:13;23.80;99.90
9987;DHT22;5033;46.310;11.214;2023-05-18T11:46:51;24.00;99.90
9987;DHT22;5033;46.310;11.214;2023-05-18T11:49:20;24.10;99.90
9987;DHT22;5033;46.310;11.214;2023-05-18T11:52:02;24.10;99.90
9987;DHT22;5033;46.310;11.214;2023-05-18T11:54:34;24.20;99.90
9987;DHT22;5033;46.310;11.214;2023-05-18T11:57:04;24.20;99.90
9987;DHT22;5033;46.310;11.214;2023-05-18T11:59:32;24.20;99.90
9987;DHT22;5033;46.310;11.214;2023-05-18T12:02:01;24.20;99.90
9987;DHT22;5033;46.310;11.214;2023-05-18T12:04:29;24.10;99.90
9987;DHT22;5033;46.310;11.214;2023-05-18T12:07:03;24.00;99.90
9987;DHT22;5033;46.310;11.214;2023-05-18T12:09:31;23.90;99.90
9987;DHT22;5033;46.310;11.214;2023-05-18T12:11:59;24.00;99.90
9987;DHT22;5033;46.310;11.214;2023-05-18T12:14:26;24.10;99.90
9987;DHT22;5033;46.310;11.214;2023-05-18T12:16:56;24.00;99.90
9987;DHT22;5033;46.310;11.214;2023-05-18T12:19:24;24.10;99.90
9987;DHT22;5033;46.310;11.214;2023-05-18T12:21:52;24.10;99.90
9987;DHT22;5033;46.310;11.214;2023-05-18T12:24:20;24.20;99.90
9987;DHT22;5033;46.310;11.214;2023-05-18T12:26:47;24.20;99.90
9987;DHT22;5033;46.310;11.214;2023-05-18T12:29:14;24.20;99.80
9987;DHT22;5033;46.310;11.214;2023-05-18T12:31:45;24.30;99.90
9987;DHT22;5033;46.310;11.214;2023-05-18T12:34:14;24.30;99.70
9987;DHT22;5033;46.310;11.214;2023-05-18T12:36:50;24.40;99.90
9987;DHT22;5033;46.310;11.214;2023-05-18T12:39:19;24.10;98.70
9987;DHT22;5033;46.310;11.214;2023-05-18T12:41:46;24.30;99.90
9987;DHT22;5033;46.310;11.214;2023-05-18T12:44:14;24.30;99.10
9987;DHT22;5033;46.310;11.214;2023-05-18T12:46:41;24.20;99.00
9987;DHT22;5033;46.310;11.214;2023-05-18T12:49:09;24.30;99.50
9987;DHT22;5033;46.310;11.214;2023-05-18T12:51:37;24.20;99.60
9987;DHT22;5033;46.310;11.214;2023-05-18T12:54:07;24.20;99.20
9987;DHT22;5033;46.310;11.214;2023-05-18T12:56:52;24.20;99.50
9987;DHT22;5033;46.310;11.214;2023-05-18T12:59:24;24.00;99.00
9987;DHT22;5033;46.310;11.214;2023-05-18T13:01:52;23.80;99.90
9987;DHT22;5033;46.310;11.214;2023-05-18T13:04:19;23.60;99.50
9987;DHT22;5033;46.310;11.214;2023-05-18T13:06:47;23.60;99.90
9987;DHT22;5033;46.310;11.214;2023-05-18T13:09:14;23.50;99.90
9987;DHT22;5033;46.310;11.214;2023-05-18T13:11:46;23.60;99.90
9987;DHT22;5033;46.310;11.214;2023-05-18T13:14:19;23.60;99.80
9987;DHT22;5033;46.310;11.214;2023-05-18T13:16:49;23.80;99.80
9987;DHT22;5033;46.310;11.214;2023-05-18T13:19:17;23.60;99.90
9987;DHT22;5033;46.310;11.214;2023-05-18T13:21:44;23.10;99.90
9987;DHT22;5033;46.310;11.214;2023-05-18T13:24:11;22.70;99.90
9987;DHT22;5033;46.310;11.214;2023-05-18T13:26:39;22.40;99.90
9987;DHT22;5033;46.310;11.214;2023-05-18T13:29:06;22.40;99.90
9987;DHT22;5033;46.310;11.214;2023-05-18T13:31:35;22.40;99.90
9987;DHT22;5033;46.310;11.214;2023-05-18T13:34:02;22.40;99.90
9987;DHT22;5033;46.310;11.214;2023-05-18T13:36:29;22.30;99.90
9987;DHT22;5033;46.310;11.214;2023-05-18T13:38:58;22.10;99.90
9987;DHT22;5033;46.310;11.214;2023-05-18T13:41:26;22.00;99.90
9987;DHT22;5033;46.310;11.214;2023-05-18T13:43:53;22.10;99.90
9987;DHT22;5033;46.310;11.214;2023-05-18T13:46:20;22.20;99.90
9987;DHT22;5033;46.310;11.214;2023-05-18T13:48:48;22.30;99.90
9987;DHT22;5033;46.310;11.214;2023-05-18T13:51:15;22.50;99.90
9987;DHT22;5033;46.310;11.214;2023-05-18T13:53:42;22.30;99.90
9987;DHT22;5033;46.310;11.214;2023-05-18T13:56:09;22.20;99.90
9987;DHT22;5033;46.310;11.214;2023-05-18T13:58:36;22.30;99.90
9987;DHT22;5033;46.310;11.214;2023-05-18T14:01:03;22.60;99.90
9987;DHT22;5033;46.310;11.214;2023-05-18T14:03:32;23.00;99.90
9987;DHT22;5033;46.310;11.214;2023-05-18T14:06:02;23.20;99.90
9987;DHT22;5033;46.310;11.214;2023-05-18T14:08:29;23.40;99.90
9987;DHT22;5033;46.310;11.214;2023-05-18T14:10:56;23.80;99.90
9987;DHT22;5033;46.310;11.214;2023-05-18T14:13:23;23.90;99.90
9987;DHT22;5033;46.310;11.214;2023-05-18T14:15:50;23.50;99.90
9987;DHT22;5033;46.310;11.214;2023-05-18T14:18:18;23.20;99.90
9987;DHT22;5033;46.310;11.214;2023-05-18T14:20:45;23.20;99.90
9987;DHT22;5033;46.310;11.214;2023-05-18T14:23:14;22.90;99.90
9987;DHT22;5033;46.310;11.214;2023-05-18T14:25:41;22.60;99.90
9987;DHT22;5033;46.310;11.214;2023-05-18T14:28:10;22.50;99.90
9987;DHT22;5033;46.310;11.214;2023-05-18T14:30:38;22.60;99.90
9987;DHT22;5033;46.310;11.214;2023-05-18T14:33:05;22.80;99.90
9987;DHT22;5033;46.310;11.214;2023-05-18T14:35:32;22.90;99.90
9987;DHT22;5033;46.310;11.214;2023-05-18T14:37:59;23.00;99.90
9987;DHT22;5033;46.310;11.214;2023-05-18T14:40:28;23.20;99.90
9987;DHT22;5033;46.310;11.214;2023-05-18T14:42:55;22.80;99.90
9987;DHT22;5033;46.310;11.214;2023-05-18T14:45:22;22.60;99.90
9987;DHT22;5033;46.310;11.214;2023-05-18T14:47:49;22.30;99.90
9987;DHT22;5033;46.310;11.214;2023-05-18T14:50:16;22.10;99.90
9987;DHT22;5033;46.310;11.214;2023-05-18T14:52:43;21.90;99.90
9987;DHT22;5033;46.310;11.214;2023-05-18T14:55:10;21.80;99.90
9987;DHT22;5033;46.310;11.214;2023-05-18T14:57:38;21.70;99.90
9987;DHT22;5033;46.310;11.214;2023-05-18T15:00:07;21.60;99.90
9987;DHT22;5033;46.310;11.214;2023-05-18T15:02:34;21.50;99.90
9987;DHT22;5033;46.310;11.214;2023-05-18T15:05:01;21.50;99.90
9987;DHT22;5033;46.310;11.214;2023-05-18T15:07:28;21.50;99.90
9987;DHT22;5033;46.310;11.214;2023-05-18T15:09:55;21.40;99.90
9987;DHT22;5033;46.310;11.214;2023-05-18T15:12:22;21.30;99.90
9987;DHT22;5033;46.310;11.214;2023-05-18T15:14:50;21.20;99.90
9987;DHT22;5033;46.310;11.214;2023-05-18T15:17:17;21.10;99.90
9987;DHT22;5033;46.310;11.214;2023-05-18T15:19:44;20.90;99.90
9987;DHT22;5033;46.310;11.214;2023-05-18T15:22:12;20.70;99.90
9987;DHT22;5033;46.310;11.214;2023-05-18T15:24:39;20.60;99.90
9987;DHT22;5033;46.310;11.214;2023-05-18T15:27:06;20.50;99.90
9987;DHT22;5033;46.310;11.214;2023-05-18T15:29:34;20.50;99.90
9987;DHT22;5033;46.310;11.214;2023-05-18T15:32:02;20.40;99.90
9987;DHT22;5033;46.310;11.214;2023-05-18T15:34:29;20.30;99.90
9987;DHT22;5033;46.310;11.214;2023-05-18T15:36:58;20.20;99.90
9987;DHT22;5033;46.310;11.214;2023-05-18T15:39:25;20.20;99.90
9987;DHT22;5033;46.310;11.214;2023-05-18T15:41:52;20.20;99.90
9987;DHT22;5033;46.310;11.214;2023-05-18T15:44:19;20.10;99.90
9987;DHT22;5033;46.310;11.214;2023-05-18T15:46:46;20.10;99.90
9987;DHT22;5033;46.310;11.214;2023-05-18T15:49:14;20.00;99.90
9987;DHT22;5033;46.310;11.214;2023-05-18T15:51:41;20.00;99.90
9987;DHT22;5033;46.310;11.214;2023-05-18T15:54:08;20.00;99.90